Terminal Aerodrome Forecast
Issued by NWS

Home | Current Version | Previous Version | Text Only | Print | Product List | Glossary On
Versions: 1 2 3 4 5 6 7 8 9 10 11 12 13 14 15 16
000
FTUS42 KMLB 231136
TAFISM
TAF
KISM 231136Z 2312/2412 17007KT P6SM SCT008 BKN015
      TEMPO 2312/2313 BKN008
     FM231400 18008KT P6SM VCSH SCT025 BKN080
     FM231700 20009KT P6SM VCTS SCT030CB BKN050
      TEMPO 2317/2321 2SM TSRA BKN025CB
     FM240000 20006KT P6SM VCSH SCT030 BKN080
     FM240800 24004KT P6SM BKN008=

USA.gov is the U.S. government's official web portal to all federal, state and local government web resources and services.